UTDK

Kulob Airport

Kulyab, Tajikistan
TAF UTDK 261200Z 2613/2622 VRB02MPS 8000 FEW066 SCT130 TEMPO 2614/2622 03005MPS
Issued Valid From Valid To
Apr-26 @ 12:00 UTC
(2 hours ago)
Apr-26 @ 13:00 UTC
(43 minutes ago)
Apr-26 @ 22:00 UTC
(in 8 hours)
Apr-26 @ 13:00 to Apr-26 @ 22:00
TAF UTDK 261200Z 2613/2622 VRB02MPS 8000 FEW066 SCT130
Wind Visibility Clouds
Variable at 4 knots 7,998 meters
  • Few at 6,600' AGL
  • Scattered at 13,000' AGL
Temporary Apr-26 @ 14:00 to Apr-26 @ 22:00
TEMPO 2614/2622 03005MPS
Wind
30° at 10 knots
TAF UTDK 261200Z 2613/2622 VRB02MPS 8000 FEW066 SCT130 TEMPO 2614/2622 03005MPS
Issued Apr-26 @ 12:00 UTC
(2 hours ago)
Valid From Apr-26 @ 13:00 UTC
(43 minutes ago)
Valid To Apr-26 @ 22:00 UTC
(in 8 hours)
Apr-26 @ 13:00 - Apr-26 @ 22:00
Wind Visibility
Variable at 4 knots 7,998 meters
Clouds
  • Few at 6,600' AGL
  • Scattered at 13,000' AGL
Temporary Apr-26 @ 14:00 - Apr-26 @ 22:00
Wind
30° at 10 knots